sensor_id;sensor_type;location;lat;lon;timestamp;pressure;altitude;pressure_sealevel;temperature;humidity
66430;BME280;53242;51.694;10.006;2023-11-21T00:01:54;98934.00;;;7.35;88.53
66430;BME280;53242;51.694;10.006;2023-11-21T00:04:17;98933.75;;;7.30;88.60
66430;BME280;53242;51.694;10.006;2023-11-21T00:06:39;98927.50;;;7.31;88.31
66430;BME280;53242;51.694;10.006;2023-11-21T00:09:03;98942.00;;;7.27;88.52
66430;BME280;53242;51.694;10.006;2023-11-21T00:11:25;98941.88;;;7.35;88.24
66430;BME280;53242;51.694;10.006;2023-11-21T00:13:47;98944.25;;;7.30;87.64
66430;BME280;53242;51.694;10.006;2023-11-21T00:16:10;98942.66;;;7.14;88.24
66430;BME280;53242;51.694;10.006;2023-11-21T00:18:32;98945.84;;;7.09;88.24
66430;BME280;53242;51.694;10.006;2023-11-21T00:20:55;98940.41;;;7.11;88.53
66430;BME280;53242;51.694;10.006;2023-11-21T00:23:17;98947.56;;;7.02;89.02
66430;BME280;53242;51.694;10.006;2023-11-21T00:25:40;98943.03;;;7.11;88.51
66430;BME280;53242;51.694;10.006;2023-11-21T00:28:02;98951.34;;;7.14;88.38
66430;BME280;53242;51.694;10.006;2023-11-21T00:30:25;98952.91;;;7.08;88.56
66430;BME280;53242;51.694;10.006;2023-11-21T00:32:47;98953.38;;;6.97;89.67
66430;BME280;53242;51.694;10.006;2023-11-21T00:35:10;98962.50;;;7.01;90.04
66430;BME280;53242;51.694;10.006;2023-11-21T00:37:32;98960.34;;;7.05;90.15
66430;BME280;53242;51.694;10.006;2023-11-21T00:39:55;98968.56;;;7.02;90.12
66430;BME280;53242;51.694;10.006;2023-11-21T00:42:18;98970.81;;;7.05;90.33
66430;BME280;53242;51.694;10.006;2023-11-21T00:44:41;98975.09;;;7.06;90.23
66430;BME280;53242;51.694;10.006;2023-11-21T00:47:04;98980.34;;;7.06;90.33
66430;BME280;53242;51.694;10.006;2023-11-21T00:49:26;98983.94;;;7.05;90.56
66430;BME280;53242;51.694;10.006;2023-11-21T00:51:50;98987.03;;;7.08;90.13
66430;BME280;53242;51.694;10.006;2023-11-21T00:54:12;98985.19;;;7.09;89.73
66430;BME280;53242;51.694;10.006;2023-11-21T00:56:35;98985.66;;;7.13;89.76
66430;BME280;53242;51.694;10.006;2023-11-21T00:58:57;98987.09;;;7.15;89.74
66430;BME280;53242;51.694;10.006;2023-11-21T01:01:20;98988.28;;;7.13;89.43
66430;BME280;53242;51.694;10.006;2023-11-21T01:03:48;98989.34;;;7.18;89.95
66430;BME280;53242;51.694;10.006;2023-11-21T01:06:10;98990.03;;;7.27;89.84
66430;BME280;53242;51.694;10.006;2023-11-21T01:08:33;98987.03;;;7.30;89.32
66430;BME280;53242;51.694;10.006;2023-11-21T01:10:55;98992.19;;;7.38;89.61
66430;BME280;53242;51.694;10.006;2023-11-21T01:13:18;98989.19;;;7.41;89.78
66430;BME280;53242;51.694;10.006;2023-11-21T01:15:40;98997.25;;;7.40;90.12
66430;BME280;53242;51.694;10.006;2023-11-21T01:18:03;98998.94;;;7.48;90.07
66430;BME280;53242;51.694;10.006;2023-11-21T01:20:26;98996.03;;;7.57;89.63
66430;BME280;53242;51.694;10.006;2023-11-21T01:22:48;99004.41;;;7.68;89.03
66430;BME280;53242;51.694;10.006;2023-11-21T01:25:11;98999.91;;;7.62;89.36
66430;BME280;53242;51.694;10.006;2023-11-21T01:27:34;98988.41;;;7.63;89.58
66430;BME280;53242;51.694;10.006;2023-11-21T01:29:57;98996.63;;;7.60;90.02
66430;BME280;53242;51.694;10.006;2023-11-21T01:32:19;98997.50;;;7.45;90.77
66430;BME280;53242;51.694;10.006;2023-11-21T01:34:41;98996.31;;;7.48;91.07
66430;BME280;53242;51.694;10.006;2023-11-21T01:37:04;99001.56;;;7.48;91.52
66430;BME280;53242;51.694;10.006;2023-11-21T01:39:27;99004.66;;;7.51;91.05
66430;BME280;53242;51.694;10.006;2023-11-21T01:41:50;99006.16;;;7.61;90.63
66430;BME280;53242;51.694;10.006;2023-11-21T01:44:14;99012.09;;;7.69;90.38
66430;BME280;53242;51.694;10.006;2023-11-21T01:46:36;99011.66;;;7.66;90.13
66430;BME280;53242;51.694;10.006;2023-11-21T01:49:00;99013.13;;;7.53;90.60
66430;BME280;53242;51.694;10.006;2023-11-21T01:51:23;99019.41;;;7.52;91.13
66430;BME280;53242;51.694;10.006;2023-11-21T01:53:45;99010.44;;;7.47;91.39
66430;BME280;53242;51.694;10.006;2023-11-21T01:56:09;99010.25;;;7.48;91.26
66430;BME280;53242;51.694;10.006;2023-11-21T01:58:32;99017.25;;;7.41;91.08
66430;BME280;53242;51.694;10.006;2023-11-21T02:00:55;99009.38;;;7.41;91.42
66430;BME280;53242;51.694;10.006;2023-11-21T02:03:18;99006.75;;;7.41;91.24
66430;BME280;53242;51.694;10.006;2023-11-21T02:05:40;99010.00;;;7.43;91.00
66430;BME280;53242;51.694;10.006;2023-11-21T02:08:02;99014.69;;;7.48;90.64
66430;BME280;53242;51.694;10.006;2023-11-21T02:10:26;99021.41;;;7.50;90.16
66430;BME280;53242;51.694;10.006;2023-11-21T02:12:49;99029.06;;;7.52;89.65
66430;BME280;53242;51.694;10.006;2023-11-21T02:15:15;99034.44;;;7.44;89.38
66430;BME280;53242;51.694;10.006;2023-11-21T02:17:37;99041.75;;;7.27;90.21
66430;BME280;53242;51.694;10.006;2023-11-21T02:20:00;99042.06;;;7.38;89.87
66430;BME280;53242;51.694;10.006;2023-11-21T02:22:25;99042.41;;;7.14;90.46
66430;BME280;53242;51.694;10.006;2023-11-21T02:24:51;99044.91;;;7.07;90.46
66430;BME280;53242;51.694;10.006;2023-11-21T02:27:13;99045.03;;;7.14;90.14
66430;BME280;53242;51.694;10.006;2023-11-21T02:29:39;99038.22;;;7.04;90.42
66430;BME280;53242;51.694;10.006;2023-11-21T02:32:02;99032.00;;;6.90;90.74
66430;BME280;53242;51.694;10.006;2023-11-21T02:34:26;99035.31;;;6.99;90.33
66430;BME280;53242;51.694;10.006;2023-11-21T02:36:48;99033.88;;;6.97;91.05
66430;BME280;53242;51.694;10.006;2023-11-21T02:39:13;99025.41;;;6.95;91.57
66430;BME280;53242;51.694;10.006;2023-11-21T02:41:39;99030.53;;;7.03;91.55
66430;BME280;53242;51.694;10.006;2023-11-21T02:44:02;99030.34;;;7.04;91.98
66430;BME280;53242;51.694;10.006;2023-11-21T02:46:24;99028.28;;;7.00;92.56
66430;BME280;53242;51.694;10.006;2023-11-21T02:48:46;99026.47;;;7.15;92.09
66430;BME280;53242;51.694;10.006;2023-11-21T02:51:09;99016.56;;;7.17;91.84
66430;BME280;53242;51.694;10.006;2023-11-21T02:53:31;99024.81;;;7.14;91.87
66430;BME280;53242;51.694;10.006;2023-11-21T02:55:54;99022.53;;;7.26;91.39
66430;BME280;53242;51.694;10.006;2023-11-21T02:58:16;99037.38;;;7.34;90.88
66430;BME280;53242;51.694;10.006;2023-11-21T03:00:39;99038.19;;;7.34;90.29
66430;BME280;53242;51.694;10.006;2023-11-21T03:03:04;99041.16;;;7.31;90.27
66430;BME280;53242;51.694;10.006;2023-11-21T03:05:26;99039.53;;;7.30;90.21
66430;BME280;53242;51.694;10.006;2023-11-21T03:07:51;99036.75;;;7.32;90.08
66430;BME280;53242;51.694;10.006;2023-11-21T03:10:13;99043.00;;;7.31;89.88
66430;BME280;53242;51.694;10.006;2023-11-21T03:12:36;99049.03;;;7.31;90.17
66430;BME280;53242;51.694;10.006;2023-11-21T03:14:58;99047.00;;;7.27;90.20
66430;BME280;53242;51.694;10.006;2023-11-21T03:17:20;99051.16;;;7.21;90.34
66430;BME280;53242;51.694;10.006;2023-11-21T03:19:43;99054.03;;;7.26;90.28
66430;BME280;53242;51.694;10.006;2023-11-21T03:22:06;99050.06;;;7.15;90.28
66430;BME280;53242;51.694;10.006;2023-11-21T03:24:29;99049.44;;;7.13;90.44
66430;BME280;53242;51.694;10.006;2023-11-21T03:26:52;99057.88;;;7.08;90.41
66430;BME280;53242;51.694;10.006;2023-11-21T03:29:15;99060.03;;;7.05;90.78
66430;BME280;53242;51.694;10.006;2023-11-21T03:31:37;99057.50;;;6.97;90.78
66430;BME280;53242;51.694;10.006;2023-11-21T03:33:59;99061.75;;;6.98;90.50
66430;BME280;53242;51.694;10.006;2023-11-21T03:36:22;99066.19;;;6.97;90.07
66430;BME280;53242;51.694;10.006;2023-11-21T03:38:44;99075.25;;;6.95;90.20
66430;BME280;53242;51.694;10.006;2023-11-21T03:41:07;99082.94;;;6.96;90.03
66430;BME280;53242;51.694;10.006;2023-11-21T03:43:32;99077.94;;;6.86;90.20
66430;BME280;53242;51.694;10.006;2023-11-21T03:45:54;99078.47;;;6.97;90.27
66430;BME280;53242;51.694;10.006;2023-11-21T03:48:17;99079.38;;;6.89;90.43
66430;BME280;53242;51.694;10.006;2023-11-21T03:50:39;99071.34;;;6.90;90.52
66430;BME280;53242;51.694;10.006;2023-11-21T03:53:02;99074.44;;;6.79;91.08
66430;BME280;53242;51.694;10.006;2023-11-21T03:55:26;99074.31;;;6.87;91.23
66430;BME280;53242;51.694;10.006;2023-11-21T03:57:48;99069.78;;;6.81;91.33
66430;BME280;53242;51.694;10.006;2023-11-21T04:00:11;99073.72;;;6.85;91.61
66430;BME280;53242;51.694;10.006;2023-11-21T04:02:36;99083.03;;;6.88;91.51
66430;BME280;53242;51.694;10.006;2023-11-21T04:04:59;99087.16;;;6.67;92.36
66430;BME280;53242;51.694;10.006;2023-11-21T04:07:21;99087.97;;;6.68;92.83
66430;BME280;53242;51.694;10.006;2023-11-21T04:09:44;99088.22;;;6.58;93.37
66430;BME280;53242;51.694;10.006;2023-11-21T04:12:07;99090.03;;;6.57;93.27
66430;BME280;53242;51.694;10.006;2023-11-21T04:14:32;99085.72;;;6.65;92.94
66430;BME280;53242;51.694;10.006;2023-11-21T04:16:54;99082.81;;;6.60;92.95
66430;BME280;53242;51.694;10.006;2023-11-21T04:19:17;99090.41;;;6.54;92.98
66430;BME280;53242;51.694;10.006;2023-11-21T04:21:39;99096.56;;;6.62;92.30
66430;BME280;53242;51.694;10.006;2023-11-21T04:24:02;99095.56;;;6.63;92.33
66430;BME280;53242;51.694;10.006;2023-11-21T04:26:24;99102.44;;;6.64;91.97
66430;BME280;53242;51.694;10.006;2023-11-21T04:28:47;99096.66;;;6.68;91.72
66430;BME280;53242;51.694;10.006;2023-11-21T04:31:09;99097.94;;;6.72;91.64
66430;BME280;53242;51.694;10.006;2023-11-21T04:33:32;99095.59;;;6.78;91.44
66430;BME280;53242;51.694;10.006;2023-11-21T04:35:54;99098.50;;;6.83;91.42
66430;BME280;53242;51.694;10.006;2023-11-21T04:38:17;99112.41;;;6.83;91.15
66430;BME280;53242;51.694;10.006;2023-11-21T04:40:39;99115.41;;;6.95;90.90
66430;BME280;53242;51.694;10.006;2023-11-21T04:43:01;99113.94;;;6.93;90.55
66430;BME280;53242;51.694;10.006;2023-11-21T04:45:24;99112.50;;;6.90;90.67
66430;BME280;53242;51.694;10.006;2023-11-21T04:47:46;99114.31;;;6.89;90.83
66430;BME280;53242;51.694;10.006;2023-11-21T04:50:09;99116.75;;;6.91;90.89
66430;BME280;53242;51.694;10.006;2023-11-21T04:52:32;99113.69;;;6.87;91.64
66430;BME280;53242;51.694;10.006;2023-11-21T04:54:55;99110.72;;;6.90;92.01
66430;BME280;53242;51.694;10.006;2023-11-21T04:57:20;99124.09;;;6.96;92.33
66430;BME280;53242;51.694;10.006;2023-11-21T04:59:43;99128.34;;;6.97;92.57
66430;BME280;53242;51.694;10.006;2023-11-21T05:02:06;99127.28;;;7.06;92.23
66430;BME280;53242;51.694;10.006;2023-11-21T05:04:28;99133.50;;;7.05;92.28
66430;BME280;53242;51.694;10.006;2023-11-21T05:06:51;99145.53;;;7.14;92.37
66430;BME280;53242;51.694;10.006;2023-11-21T05:09:13;99149.44;;;7.18;92.11
66430;BME280;53242;51.694;10.006;2023-11-21T05:11:36;99144.81;;;7.20;92.06
66430;BME280;53242;51.694;10.006;2023-11-21T05:13:58;99146.72;;;7.12;92.32
66430;BME280;53242;51.694;10.006;2023-11-21T05:16:25;99146.16;;;7.01;93.19
66430;BME280;53242;51.694;10.006;2023-11-21T05:18:49;99147.97;;;7.16;92.74
66430;BME280;53242;51.694;10.006;2023-11-21T05:21:12;99152.50;;;7.07;92.92
66430;BME280;53242;51.694;10.006;2023-11-21T05:23:35;99153.66;;;7.04;93.27
66430;BME280;53242;51.694;10.006;2023-11-21T05:25:57;99160.09;;;7.02;93.30
66430;BME280;53242;51.694;10.006;2023-11-21T05:28:20;99170.16;;;7.13;93.47
66430;BME280;53242;51.694;10.006;2023-11-21T05:30:42;99159.94;;;7.18;93.49
66430;BME280;53242;51.694;10.006;2023-11-21T05:33:05;99170.16;;;7.13;93.81
66430;BME280;53242;51.694;10.006;2023-11-21T05:35:27;99170.50;;;7.25;93.15
66430;BME280;53242;51.694;10.006;2023-11-21T05:37:50;99165.53;;;7.30;92.85
66430;BME280;53242;51.694;10.006;2023-11-21T05:40:13;99177.69;;;7.16;93.24
66430;BME280;53242;51.694;10.006;2023-11-21T05:42:36;99175.22;;;7.30;92.91
66430;BME280;53242;51.694;10.006;2023-11-21T05:45:00;99174.25;;;7.31;92.89
66430;BME280;53242;51.694;10.006;2023-11-21T05:47:31;99176.41;;;7.27;92.96
66430;BME280;53242;51.694;10.006;2023-11-21T05:49:54;99186.25;;;7.25;93.25
66430;BME280;53242;51.694;10.006;2023-11-21T05:52:17;99185.47;;;7.24;93.15
66430;BME280;53242;51.694;10.006;2023-11-21T05:54:40;99184.81;;;7.22;92.97
66430;BME280;53242;51.694;10.006;2023-11-21T05:57:02;99181.00;;;7.25;93.10
66430;BME280;53242;51.694;10.006;2023-11-21T05:59:25;99180.75;;;7.35;92.94
66430;BME280;53242;51.694;10.006;2023-11-21T06:01:47;99177.94;;;7.06;93.57
66430;BME280;53242;51.694;10.006;2023-11-21T06:04:09;99180.75;;;7.20;93.40
66430;BME280;53242;51.694;10.006;2023-11-21T06:06:32;99185.19;;;7.19;93.55
66430;BME280;53242;51.694;10.006;2023-11-21T06:08:55;99183.38;;;7.05;94.19
66430;BME280;53242;51.694;10.006;2023-11-21T06:11:17;99191.78;;;7.15;94.24
66430;BME280;53242;51.694;10.006;2023-11-21T06:13:40;99188.72;;;7.12;94.55
66430;BME280;53242;51.694;10.006;2023-11-21T06:16:02;99186.53;;;7.15;94.56
66430;BME280;53242;51.694;10.006;2023-11-21T06:18:25;99194.31;;;7.23;94.17
66430;BME280;53242;51.694;10.006;2023-11-21T06:20:47;99199.13;;;7.20;94.51
66430;BME280;53242;51.694;10.006;2023-11-21T06:23:09;99198.97;;;7.21;94.34
66430;BME280;53242;51.694;10.006;2023-11-21T06:25:32;99204.28;;;7.28;93.99
66430;BME280;53242;51.694;10.006;2023-11-21T06:27:58;99210.34;;;7.29;93.95
66430;BME280;53242;51.694;10.006;2023-11-21T06:30:20;99212.78;;;7.30;93.89
66430;BME280;53242;51.694;10.006;2023-11-21T06:32:43;99213.97;;;7.28;93.76
66430;BME280;53242;51.694;10.006;2023-11-21T06:35:09;99210.06;;;7.08;94.37
66430;BME280;53242;51.694;10.006;2023-11-21T06:37:32;99209.25;;;7.08;94.25
66430;BME280;53242;51.694;10.006;2023-11-21T06:39:55;99213.88;;;7.06;95.09
66430;BME280;53242;51.694;10.006;2023-11-21T06:42:19;99219.41;;;7.11;94.78
66430;BME280;53242;51.694;10.006;2023-11-21T06:44:41;99218.13;;;7.22;94.49
66430;BME280;53242;51.694;10.006;2023-11-21T06:47:04;99218.84;;;7.16;94.57
66430;BME280;53242;51.694;10.006;2023-11-21T06:49:26;99224.56;;;7.19;94.62
66430;BME280;53242;51.694;10.006;2023-11-21T06:51:49;99227.28;;;7.26;94.59
66430;BME280;53242;51.694;10.006;2023-11-21T06:54:11;99222.56;;;7.36;94.52
66430;BME280;53242;51.694;10.006;2023-11-21T06:56:34;99230.00;;;7.33;94.26
66430;BME280;53242;51.694;10.006;2023-11-21T06:58:56;99231.78;;;7.17;94.89
66430;BME280;53242;51.694;10.006;2023-11-21T07:01:19;99235.69;;;7.36;94.18
66430;BME280;53242;51.694;10.006;2023-11-21T07:03:41;99236.06;;;7.33;94.56
66430;BME280;53242;51.694;10.006;2023-11-21T07:06:04;99242.13;;;7.34;94.57
66430;BME280;53242;51.694;10.006;2023-11-21T07:08:26;99247.03;;;7.37;95.19
66430;BME280;53242;51.694;10.006;2023-11-21T07:10:49;99249.09;;;7.41;94.60
66430;BME280;53242;51.694;10.006;2023-11-21T07:13:11;99248.91;;;7.43;94.53
66430;BME280;53242;51.694;10.006;2023-11-21T07:15:34;99250.44;;;7.22;94.89
66430;BME280;53242;51.694;10.006;2023-11-21T07:17:57;99256.66;;;7.45;94.89
66430;BME280;53242;51.694;10.006;2023-11-21T07:20:19;99257.59;;;7.29;94.72
66430;BME280;53242;51.694;10.006;2023-11-21T07:22:42;99262.22;;;7.41;95.18
66430;BME280;53242;51.694;10.006;2023-11-21T07:25:04;99266.88;;;7.39;94.91
66430;BME280;53242;51.694;10.006;2023-11-21T07:27:27;99261.16;;;7.51;94.76
66430;BME280;53242;51.694;10.006;2023-11-21T07:29:50;99259.34;;;7.51;94.41
66430;BME280;53242;51.694;10.006;2023-11-21T07:32:12;99270.03;;;7.50;94.75
66430;BME280;53242;51.694;10.006;2023-11-21T07:34:36;99277.66;;;7.60;94.17
66430;BME280;53242;51.694;10.006;2023-11-21T07:36:59;99288.84;;;7.53;94.42
66430;BME280;53242;51.694;10.006;2023-11-21T07:39:21;99284.34;;;7.47;95.06
66430;BME280;53242;51.694;10.006;2023-11-21T07:41:44;99292.66;;;7.51;94.93
66430;BME280;53242;51.694;10.006;2023-11-21T07:44:10;99296.41;;;7.56;95.25
66430;BME280;53242;51.694;10.006;2023-11-21T07:46:33;99297.75;;;7.67;94.33
66430;BME280;53242;51.694;10.006;2023-11-21T07:48:55;99298.66;;;7.60;94.59
66430;BME280;53242;51.694;10.006;2023-11-21T07:51:17;99297.38;;;7.55;94.34
66430;BME280;53242;51.694;10.006;2023-11-21T07:53:40;99309.78;;;7.47;95.03
66430;BME280;53242;51.694;10.006;2023-11-21T07:56:04;99301.75;;;7.63;94.80
66430;BME280;53242;51.694;10.006;2023-11-21T07:58:26;99303.28;;;7.57;94.98
66430;BME280;53242;51.694;10.006;2023-11-21T08:00:49;99313.44;;;7.61;94.76
66430;BME280;53242;51.694;10.006;2023-11-21T08:03:15;99315.97;;;7.69;94.52
66430;BME280;53242;51.694;10.006;2023-11-21T08:05:38;99312.00;;;7.73;94.41
66430;BME280;53242;51.694;10.006;2023-11-21T08:08:00;99323.50;;;7.72;94.40
66430;BME280;53242;51.694;10.006;2023-11-21T08:10:23;99326.03;;;7.80;94.48
66430;BME280;53242;51.694;10.006;2023-11-21T08:12:45;99320.78;;;7.80;94.38
66430;BME280;53242;51.694;10.006;2023-11-21T08:15:10;99332.91;;;7.81;94.49
66430;BME280;53242;51.694;10.006;2023-11-21T08:17:32;99333.56;;;7.83;94.88
66430;BME280;53242;51.694;10.006;2023-11-21T08:19:55;99336.44;;;7.73;95.00
66430;BME280;53242;51.694;10.006;2023-11-21T08:22:17;99340.78;;;7.81;95.04
66430;BME280;53242;51.694;10.006;2023-11-21T08:24:40;99336.72;;;7.79;94.71
66430;BME280;53242;51.694;10.006;2023-11-21T08:27:02;99340.25;;;7.71;95.10
66430;BME280;53242;51.694;10.006;2023-11-21T08:29:26;99341.59;;;7.67;95.50
66430;BME280;53242;51.694;10.006;2023-11-21T08:31:48;99344.13;;;7.75;95.49
66430;BME280;53242;51.694;10.006;2023-11-21T08:34:11;99340.72;;;7.74;95.72
66430;BME280;53242;51.694;10.006;2023-11-21T08:36:33;99335.19;;;7.69;96.28
66430;BME280;53242;51.694;10.006;2023-11-21T08:38:56;99342.97;;;7.78;96.38
66430;BME280;53242;51.694;10.006;2023-11-21T08:41:18;99341.03;;;7.71;96.34
66430;BME280;53242;51.694;10.006;2023-11-21T08:43:43;99342.16;;;7.77;96.36
66430;BME280;53242;51.694;10.006;2023-11-21T08:46:07;99348.88;;;7.80;96.56
66430;BME280;53242;51.694;10.006;2023-11-21T08:48:30;99350.50;;;7.81;96.48
66430;BME280;53242;51.694;10.006;2023-11-21T08:50:53;99347.03;;;7.80;96.39
66430;BME280;53242;51.694;10.006;2023-11-21T08:53:16;99348.22;;;7.78;96.67
66430;BME280;53242;51.694;10.006;2023-11-21T08:55:39;99356.19;;;7.84;96.49
66430;BME280;53242;51.694;10.006;2023-11-21T08:58:01;99351.41;;;7.88;96.30
66430;BME280;53242;51.694;10.006;2023-11-21T09:00:25;99359.81;;;7.68;96.48
66430;BME280;53242;51.694;10.006;2023-11-21T09:02:47;99369.97;;;7.86;96.50
66430;BME280;53242;51.694;10.006;2023-11-21T09:05:10;99371.88;;;7.93;96.37
66430;BME280;53242;51.694;10.006;2023-11-21T09:07:33;99371.78;;;7.71;96.58
66430;BME280;53242;51.694;10.006;2023-11-21T09:09:55;99373.31;;;7.80;96.46
66430;BME280;53242;51.694;10.006;2023-11-21T09:12:18;99370.97;;;7.85;96.60
66430;BME280;53242;51.694;10.006;2023-11-21T09:14:42;99372.69;;;7.78;96.56
66430;BME280;53242;51.694;10.006;2023-11-21T09:17:06;99378.47;;;7.73;97.04
66430;BME280;53242;51.694;10.006;2023-11-21T09:19:33;99381.78;;;7.52;97.11
66430;BME280;53242;51.694;10.006;2023-11-21T09:21:55;99390.56;;;7.60;98.03
66430;BME280;53242;51.694;10.006;2023-11-21T09:24:19;99385.59;;;7.50;97.72
66430;BME280;53242;51.694;10.006;2023-11-21T09:26:41;99381.00;;;7.67;98.17
66430;BME280;53242;51.694;10.006;2023-11-21T09:29:04;99388.22;;;7.65;97.94
66430;BME280;53242;51.694;10.006;2023-11-21T09:31:26;99389.44;;;7.77;97.96
66430;BME280;53242;51.694;10.006;2023-11-21T09:33:49;99391.72;;;7.80;97.68
66430;BME280;53242;51.694;10.006;2023-11-21T09:36:12;99394.34;;;7.80;98.05
66430;BME280;53242;51.694;10.006;2023-11-21T09:38:38;99386.81;;;7.77;98.17
66430;BME280;53242;51.694;10.006;2023-11-21T09:41:01;99389.72;;;7.82;97.62
66430;BME280;53242;51.694;10.006;2023-11-21T09:43:27;99393.25;;;7.74;97.84
66430;BME280;53242;51.694;10.006;2023-11-21T09:46:00;99402.88;;;7.82;97.68
66430;BME280;53242;51.694;10.006;2023-11-21T09:48:24;99392.97;;;7.84;97.60
66430;BME280;53242;51.694;10.006;2023-11-21T09:50:48;99401.31;;;7.88;97.83
66430;BME280;53242;51.694;10.006;2023-11-21T09:53:19;99406.16;;;7.99;97.59
66430;BME280;53242;51.694;10.006;2023-11-21T09:55:53;99400.88;;;7.99;97.25
66430;BME280;53242;51.694;10.006;2023-11-21T09:58:16;99408.69;;;7.93;97.56
66430;BME280;53242;51.694;10.006;2023-11-21T10:00:51;99408.97;;;7.98;97.96
66430;BME280;53242;51.694;10.006;2023-11-21T10:03:15;99415.47;;;8.02;97.69
66430;BME280;53242;51.694;10.006;2023-11-21T10:05:37;99416.31;;;8.02;97.27
66430;BME280;53242;51.694;10.006;2023-11-21T10:08:00;99406.59;;;8.03;97.33
66430;BME280;53242;51.694;10.006;2023-11-21T10:10:23;99411.41;;;7.99;97.34
66430;BME280;53242;51.694;10.006;2023-11-21T10:12:51;99412.66;;;8.03;97.51
66430;BME280;53242;51.694;10.006;2023-11-21T10:15:16;99421.84;;;8.22;96.86
66430;BME280;53242;51.694;10.006;2023-11-21T10:17:40;99431.81;;;8.12;97.13
66430;BME280;53242;51.694;10.006;2023-11-21T10:20:07;99423.66;;;8.07;97.18
66430;BME280;53242;51.694;10.006;2023-11-21T10:22:33;99430.16;;;7.96;97.65
66430;BME280;53242;51.694;10.006;2023-11-21T10:24:57;99440.88;;;8.10;97.87
66430;BME280;53242;51.694;10.006;2023-11-21T10:27:19;99440.25;;;8.07;97.17
66430;BME280;53242;51.694;10.006;2023-11-21T10:29:41;99445.03;;;8.04;97.25
66430;BME280;53242;51.694;10.006;2023-11-21T10:32:04;99445.81;;;7.89;97.19
66430;BME280;53242;51.694;10.006;2023-11-21T10:34:27;99446.41;;;8.00;97.20
66430;BME280;53242;51.694;10.006;2023-11-21T10:36:50;99452.19;;;7.95;97.00
66430;BME280;53242;51.694;10.006;2023-11-21T10:39:19;99459.16;;;8.03;97.56
66430;BME280;53242;51.694;10.006;2023-11-21T10:41:44;99460.34;;;8.00;97.19
66430;BME280;53242;51.694;10.006;2023-11-21T10:44:08;99463.19;;;7.76;97.58
66430;BME280;53242;51.694;10.006;2023-11-21T10:46:31;99465.25;;;8.03;97.91
66430;BME280;53242;51.694;10.006;2023-11-21T10:48:54;99466.63;;;8.14;97.38
66430;BME280;53242;51.694;10.006;2023-11-21T10:51:18;99460.00;;;8.18;97.08
66430;BME280;53242;51.694;10.006;2023-11-21T10:53:41;99454.63;;;7.97;97.14
66430;BME280;53242;51.694;10.006;2023-11-21T10:56:06;99458.25;;;7.96;97.57
66430;BME280;53242;51.694;10.006;2023-11-21T10:58:30;99459.06;;;7.96;98.12
66430;BME280;53242;51.694;10.006;2023-11-21T11:00:54;99460.59;;;7.90;97.94
66430;BME280;53242;51.694;10.006;2023-11-21T11:03:17;99470.19;;;7.83;98.36
66430;BME280;53242;51.694;10.006;2023-11-21T11:05:40;99475.97;;;7.79;98.64
66430;BME280;53242;51.694;10.006;2023-11-21T11:08:05;99474.78;;;7.81;98.05
66430;BME280;53242;51.694;10.006;2023-11-21T11:10:28;99481.59;;;7.90;98.41
66430;BME280;53242;51.694;10.006;2023-11-21T11:12:54;99476.75;;;7.79;97.95
66430;BME280;53242;51.694;10.006;2023-11-21T11:15:17;99483.91;;;7.70;97.53
66430;BME280;53242;51.694;10.006;2023-11-21T11:17:40;99483.25;;;7.68;97.29
66430;BME280;53242;51.694;10.006;2023-11-21T11:20:05;99492.13;;;7.67;96.70
66430;BME280;53242;51.694;10.006;2023-11-21T11:22:57;99489.69;;;7.66;96.90
66430;BME280;53242;51.694;10.006;2023-11-21T11:28:17;99485.66;;;7.55;97.38
66430;BME280;53242;51.694;10.006;2023-11-21T11:33:43;99485.22;;;7.43;96.50
66430;BME280;53242;51.694;10.006;2023-11-21T11:36:16;99497.78;;;7.56;95.96
66430;BME280;53242;51.694;10.006;2023-11-21T11:38:45;99500.41;;;7.33;96.56
66430;BME280;53242;51.694;10.006;2023-11-21T11:41:08;99505.66;;;7.33;96.05
66430;BME280;53242;51.694;10.006;2023-11-21T11:43:32;99513.09;;;7.21;95.59
66430;BME280;53242;51.694;10.006;2023-11-21T11:46:06;99518.41;;;7.13;95.30
66430;BME280;53242;51.694;10.006;2023-11-21T11:48:29;99521.94;;;6.88;94.77
66430;BME280;53242;51.694;10.006;2023-11-21T11:51:05;99526.84;;;6.91;94.17
66430;BME280;53242;51.694;10.006;2023-11-21T11:53:44;99532.91;;;6.92;93.76
66430;BME280;53242;51.694;10.006;2023-11-21T11:56:28;99529.97;;;6.87;93.22
66430;BME280;53242;51.694;10.006;2023-11-21T11:58:56;99525.84;;;6.93;93.28
66430;BME280;53242;51.694;10.006;2023-11-21T12:01:20;99530.63;;;6.89;93.23
66430;BME280;53242;51.694;10.006;2023-11-21T12:03:42;99544.44;;;6.83;91.90
66430;BME280;53242;51.694;10.006;2023-11-21T12:06:06;99543.59;;;6.82;91.79
66430;BME280;53242;51.694;10.006;2023-11-21T12:08:30;99543.94;;;6.79;91.75
66430;BME280;53242;51.694;10.006;2023-11-21T12:10:53;99542.31;;;6.78;91.53
66430;BME280;53242;51.694;10.006;2023-11-21T12:13:16;99546.22;;;6.82;91.42
66430;BME280;53242;51.694;10.006;2023-11-21T12:15:39;99548.03;;;6.82;91.56
66430;BME280;53242;51.694;10.006;2023-11-21T12:18:03;99546.34;;;6.97;90.70
66430;BME280;53242;51.694;10.006;2023-11-21T12:20:26;99544.22;;;6.93;89.66
66430;BME280;53242;51.694;10.006;2023-11-21T12:22:53;99549.78;;;6.98;89.32
66430;BME280;53242;51.694;10.006;2023-11-21T12:25:17;99549.28;;;6.94;88.88
66430;BME280;53242;51.694;10.006;2023-11-21T12:27:40;99559.41;;;7.05;87.98
66430;BME280;53242;51.694;10.006;2023-11-21T12:30:03;99559.59;;;7.04;87.74
66430;BME280;53242;51.694;10.006;2023-11-21T12:32:26;99566.19;;;6.91;88.20
66430;BME280;53242;51.694;10.006;2023-11-21T12:34:49;99568.66;;;6.93;87.79
66430;BME280;53242;51.694;10.006;2023-11-21T12:37:11;99568.31;;;6.96;87.54
66430;BME280;53242;51.694;10.006;2023-11-21T12:39:34;99582.44;;;6.87;86.96
66430;BME280;53242;51.694;10.006;2023-11-21T12:41:57;99576.53;;;6.85;86.68
66430;BME280;53242;51.694;10.006;2023-11-21T12:44:19;99583.91;;;6.89;85.99
66430;BME280;53242;51.694;10.006;2023-11-21T12:46:42;99586.56;;;6.73;86.49